This is the latest recevied weather packets stored in our database for station/object ON5MM-5. If no packets are shown the sender has not sent any weather packets the latest 10 day(s).
| Time | Temp. | Humidity | Pressure | Rain* | Wind** | Luminosity | Snow |
|---|---|---|---|---|---|---|---|
| 1777725003 | 16.67° C | 68% | 1019.6 hPa | 2.79 mm | 3.13 m/s, ° | - | - |
| 1777724702 | 18.33° C | 65% | 1019.6 hPa | 3.3 mm | 4.02 m/s, ° | - | - |
| 1777724403 | 20° C | 62% | 1019.6 hPa | 2.29 mm | 0.89 m/s, ° | - | - |
| 1777724102 | 21.11° C | 58% | 1019.5 hPa | 1.27 mm | 0 m/s | - | - |
| 1777723802 | 21.67° C | 59% | 1019.6 hPa | 0.76 mm | 0 m/s | - | - |
| 1777723503 | 21.67° C | 60% | 1019.6 hPa | 0.76 mm | 1.34 m/s, ° | - | - |
| 1777723203 | 21.67° C | 60% | 1019.6 hPa | 0.76 mm | 0.45 m/s, ° | - | - |
| 1777722902 | 21.11° C | 61% | 1019.8 hPa | 0.76 mm | 0 m/s | - | - |
| 1777722603 | 20.56° C | 61% | 1019.9 hPa | 0.76 mm | 0 m/s | - | - |
| 1777722302 | 20° C | 61% | 1019.9 hPa | 0.76 mm | 0 m/s | - | - |
| 1777722002 | 20° C | 63% | 1020 hPa | 0.76 mm | 0 m/s | - | - |
| 1777721702 | 20° C | 60% | 1020.1 hPa | 0.76 mm | 1.79 m/s, ° | - | - |
| 1777721402 | 21.11° C | 54% | 1020.2 hPa | 0.25 mm | 0 m/s | - | - |
| 1777721102 | 21.11° C | 51% | 1020.1 hPa | 0 mm | 1.34 m/s, ° | - | - |
| 1777720802 | 21.67° C | 50% | 1020 hPa | 0 mm | 0.45 m/s, ° | - | - |
| 1777720503 | 21.67° C | 48% | 1020 hPa | 0 mm | 2.24 m/s, ° | - | - |
| 1777720203 | 22.22° C | 45% | 1020.1 hPa | 0 mm | 1.79 m/s, ° | - | - |
| 1777719902 | 22.78° C | 43% | 1020.1 hPa | 0 mm | 2.24 m/s, ° | - | - |
| 1777719603 | 22.78° C | 44% | 1020.1 hPa | 0 mm | 2.68 m/s, ° | - | - |
| 1777719302 | 22.78° C | 44% | 1020.2 hPa | 0 mm | 2.68 m/s, ° | - | - |
| 1777719002 | 22.78° C | 44% | 1020.3 hPa | 0 mm | 2.24 m/s, ° | - | - |
| 1777718702 | 22.78° C | 43% | 1020.4 hPa | 0 mm | 2.24 m/s, ° | - | - |
| 1777718403 | 22.78° C | 44% | 1020.4 hPa | 0 mm | 2.68 m/s, ° | - | - |
| 1777718103 | 22.78° C | 44% | 1020.5 hPa | 0 mm | 2.24 m/s, ° | - | - |
| 1777717802 | 22.22° C | 44% | 1020.5 hPa | 0 mm | 2.68 m/s, ° | - | - |
* Rain latest hour (hover to see other rain measurements)
** Current wind speed in m/s (hover to see current wind gust speed)